createdAt,value
2023-06-17T00:00:22.567Z,24.05
2023-06-17T00:02:52.340Z,24.98
2023-06-17T00:05:21.232Z,24.00
2023-06-17T00:07:50.175Z,24.83
2023-06-17T00:10:19.292Z,23.55
2023-06-17T00:12:50.123Z,24.20
2023-06-17T00:15:20.178Z,22.42
2023-06-17T00:17:49.048Z,23.48
2023-06-17T00:20:17.937Z,21.77
2023-06-17T00:22:48.785Z,22.88
2023-06-17T00:25:18.045Z,23.60
2023-06-17T00:27:46.944Z,22.75
2023-06-17T00:30:15.968Z,23.20
2023-06-17T00:32:46.820Z,22.75
2023-06-17T00:35:15.805Z,22.67
2023-06-17T00:37:44.437Z,19.73
2023-06-17T00:40:14.260Z,22.48
2023-06-17T00:42:42.898Z,20.38
2023-06-17T00:45:11.839Z,20.25
2023-06-17T00:47:43.963Z,20.25
2023-06-17T00:50:14.431Z,18.98
2023-06-17T00:52:46.029Z,20.45
2023-06-17T00:55:15.263Z,20.80
2023-06-17T00:57:48.072Z,20.48
2023-06-17T01:00:17.779Z,19.85
2023-06-17T01:02:48.421Z,20.83
2023-06-17T01:05:18.858Z,21.77
2023-06-17T01:08:00.111Z,22.23
2023-06-17T01:10:53.258Z,21.02
2023-06-17T01:13:24.960Z,21.95
2023-06-17T01:15:54.663Z,20.38
2023-06-17T01:18:26.718Z,22.52
2023-06-17T01:20:57.697Z,24.25
2023-06-17T01:23:33.847Z,26.25
2023-06-17T01:26:03.520Z,29.70
2023-06-17T01:28:33.170Z,27.73
2023-06-17T01:31:03.209Z,27.25
2023-06-17T01:33:32.469Z,27.65
2023-06-17T01:36:10.657Z,26.05
2023-06-17T01:38:49.187Z,26.85
2023-06-17T01:41:45.475Z,23.45
2023-06-17T01:44:15.866Z,20.75
2023-06-17T01:46:45.801Z,19.63
2023-06-17T01:49:14.511Z,18.50
2023-06-17T01:51:43.468Z,18.27
2023-06-17T01:54:12.338Z,17.48
2023-06-17T01:56:41.226Z,16.25
2023-06-17T01:59:10.017Z,15.05
2023-06-17T02:01:38.982Z,13.80
2023-06-17T02:04:07.721Z,13.57
2023-06-17T02:06:39.454Z,11.77
2023-06-17T02:09:08.976Z,13.20
2023-06-17T02:11:37.629Z,12.98
2023-06-17T02:14:07.077Z,12.35
2023-06-17T02:16:35.724Z,11.00
2023-06-17T02:19:05.207Z,10.60
2023-06-17T02:21:34.247Z,11.05
2023-06-17T02:24:02.945Z,9.68
2023-06-17T02:26:34.672Z,9.05
2023-06-17T02:29:05.728Z,9.32
2023-06-17T02:31:35.705Z,8.30
2023-06-17T02:34:04.862Z,8.45
2023-06-17T02:36:33.968Z,9.98
2023-06-17T02:39:02.725Z,10.27
2023-06-17T02:41:31.724Z,9.52
2023-06-17T02:44:00.508Z,9.00
2023-06-17T02:46:29.700Z,10.52
2023-06-17T02:48:58.831Z,9.80
2023-06-17T02:51:29.886Z,11.45
2023-06-17T02:53:58.743Z,10.85
2023-06-17T02:56:28.605Z,10.00
2023-06-17T02:58:57.749Z,11.82
2023-06-17T03:01:26.657Z,10.43
2023-06-17T03:03:57.220Z,9.40
2023-06-17T03:06:26.907Z,8.90
2023-06-17T03:08:55.759Z,10.30
2023-06-17T03:11:25.010Z,8.25
2023-06-17T03:13:54.038Z,8.85
2023-06-17T03:16:36.605Z,8.52
2023-06-17T03:19:05.739Z,9.40
2023-06-17T03:21:42.659Z,7.72
2023-06-17T03:24:12.329Z,8.20
2023-06-17T03:26:41.160Z,8.20
2023-06-17T03:29:10.977Z,8.07
2023-06-17T03:31:40.188Z,7.53
2023-06-17T03:34:10.408Z,9.15
2023-06-17T03:36:42.022Z,8.40
2023-06-17T03:39:10.899Z,8.00
2023-06-17T03:41:40.646Z,11.00
2023-06-17T03:44:10.564Z,12.10
2023-06-17T03:46:40.356Z,7.72
2023-06-17T03:49:09.864Z,6.00
2023-06-17T03:51:39.190Z,6.95
2023-06-17T03:54:08.575Z,6.60
2023-06-17T03:56:39.755Z,5.97
2023-06-17T03:59:08.906Z,6.70
2023-06-17T04:01:37.742Z,6.78
2023-06-17T04:04:06.815Z,6.10
2023-06-17T04:06:37.351Z,5.88
2023-06-17T04:09:07.330Z,6.75
2023-06-17T04:11:36.456Z,6.43
2023-06-17T04:14:05.197Z,5.55
2023-06-17T04:16:37.522Z,6.30
2023-06-17T04:19:06.540Z,5.88
2023-06-17T04:21:36.624Z,6.65
2023-06-17T04:24:05.879Z,8.55
2023-06-17T04:26:34.578Z,5.38
2023-06-17T04:29:04.234Z,6.47
2023-06-17T04:31:37.480Z,5.55
2023-06-17T04:34:07.382Z,4.47
2023-06-17T04:36:36.460Z,5.68
2023-06-17T04:39:07.027Z,5.93
2023-06-17T04:41:37.036Z,5.13
2023-06-17T04:44:06.248Z,5.65
2023-06-17T04:46:35.343Z,12.10
2023-06-17T04:49:04.584Z,7.20
2023-06-17T04:51:39.185Z,8.57
2023-06-17T04:54:08.560Z,4.43
2023-06-17T04:56:38.493Z,6.50
2023-06-17T04:59:07.490Z,9.05
2023-06-17T05:01:36.299Z,5.68
2023-06-17T05:04:05.366Z,4.82
2023-06-17T05:06:34.792Z,5.43
2023-06-17T05:09:04.583Z,6.78
2023-06-17T05:11:33.661Z,5.32
2023-06-17T05:14:02.537Z,6.25
2023-06-17T05:16:31.389Z,7.32
2023-06-17T05:19:01.884Z,5.72
2023-06-17T05:21:31.658Z,5.35
2023-06-17T05:24:03.611Z,5.70
2023-06-17T05:26:33.108Z,8.65
2023-06-17T05:29:01.785Z,10.80
2023-06-17T05:31:30.911Z,10.55
2023-06-17T05:34:01.083Z,11.43
2023-06-17T05:36:30.063Z,10.68
2023-06-17T05:38:58.753Z,10.77
2023-06-17T05:41:28.586Z,9.20
2023-06-17T05:43:57.420Z,10.23
2023-06-17T05:46:26.637Z,10.90
2023-06-17T05:48:55.441Z,11.48
2023-06-17T05:51:24.985Z,15.15
2023-06-17T05:53:55.648Z,14.82
2023-06-17T05:56:24.636Z,15.48
2023-06-17T05:58:53.937Z,14.95
2023-06-17T06:01:34.741Z,14.73
2023-06-17T06:04:04.819Z,14.70
2023-06-17T06:06:34.913Z,14.20
2023-06-17T06:09:06.209Z,14.73
2023-06-17T06:11:35.421Z,14.73
2023-06-17T06:14:04.082Z,12.27
2023-06-17T06:16:33.031Z,11.20
2023-06-17T06:19:01.793Z,11.75
2023-06-17T06:21:30.833Z,14.73
2023-06-17T06:24:02.086Z,15.75
2023-06-17T06:26:36.330Z,18.08
2023-06-17T06:29:06.859Z,17.70
2023-06-17T06:31:36.993Z,17.42
2023-06-17T06:34:05.915Z,16.70
2023-06-17T06:36:34.617Z,14.93
2023-06-17T06:39:03.612Z,15.00
2023-06-17T06:41:32.516Z,17.48
2023-06-17T06:44:19.503Z,16.85
2023-06-17T06:46:49.281Z,19.00
2023-06-17T06:49:18.025Z,16.05
2023-06-17T06:51:47.427Z,15.82
2023-06-17T06:54:16.521Z,15.35
2023-06-17T06:56:45.166Z,15.93
2023-06-17T06:59:14.309Z,16.33
2023-06-17T07:01:43.018Z,15.07
2023-06-17T07:04:13.156Z,15.50
2023-06-17T07:06:42.269Z,13.75
2023-06-17T07:09:15.804Z,15.82
2023-06-17T07:11:44.640Z,15.85
2023-06-17T07:14:14.407Z,20.75
2023-06-17T07:16:43.877Z,16.23
2023-06-17T07:19:13.597Z,13.05
2023-06-17T07:21:42.683Z,13.48
2023-06-17T07:24:11.875Z,17.70
2023-06-17T07:26:40.901Z,15.52
2023-06-17T07:29:09.868Z,15.90
2023-06-17T07:31:39.153Z,15.63
2023-06-17T07:34:08.023Z,16.70
2023-06-17T07:36:36.848Z,16.55
2023-06-17T07:39:05.667Z,12.57
2023-06-17T07:41:34.550Z,13.65
2023-06-17T07:44:03.198Z,13.80
2023-06-17T07:46:34.085Z,10.48
2023-06-17T07:49:02.968Z,10.50
2023-06-17T07:51:32.724Z,11.13
2023-06-17T07:54:01.660Z,10.63
2023-06-17T07:56:30.671Z,9.90
2023-06-17T07:59:01.139Z,11.18
2023-06-17T08:01:29.882Z,9.32
2023-06-17T08:03:59.219Z,8.93
2023-06-17T08:06:27.938Z,10.82
2023-06-17T08:08:56.936Z,9.10
2023-06-17T08:11:25.777Z,8.40
2023-06-17T08:13:54.595Z,8.55
2023-06-17T08:16:23.368Z,7.88
2023-06-17T08:18:52.446Z,8.43
2023-06-17T08:21:21.007Z,7.88
2023-06-17T08:23:53.352Z,7.35
2023-06-17T08:26:22.348Z,8.15
2023-06-17T08:28:50.908Z,9.18
2023-06-17T08:31:19.902Z,6.88
2023-06-17T08:33:48.643Z,6.68
2023-06-17T08:36:17.897Z,6.47
2023-06-17T08:38:46.541Z,7.47
2023-06-17T08:41:15.356Z,6.78
2023-06-17T08:43:46.449Z,6.28
2023-06-17T08:46:16.723Z,6.57
2023-06-17T08:48:48.406Z,5.75
2023-06-17T08:53:47.300Z,5.07
2023-06-17T08:56:16.278Z,5.10
2023-06-17T08:58:45.919Z,6.25
2023-06-17T09:01:15.294Z,5.65
2023-06-17T09:03:44.775Z,6.22
2023-06-17T09:06:22.285Z,5.25
2023-06-17T09:08:55.574Z,6.15
2023-06-17T09:11:33.207Z,4.45
2023-06-17T09:14:04.110Z,5.45
2023-06-17T09:16:37.867Z,6.10
2023-06-17T09:19:10.973Z,5.60
2023-06-17T09:21:40.202Z,4.78
2023-06-17T09:24:13.492Z,5.22
2023-06-17T09:26:45.050Z,5.30
2023-06-17T09:29:15.423Z,5.22
2023-06-17T09:31:51.925Z,5.10
2023-06-17T09:34:22.504Z,5.32
2023-06-17T09:37:02.927Z,6.10
2023-06-17T09:39:35.577Z,5.45
2023-06-17T09:42:12.532Z,4.85
2023-06-17T09:44:42.250Z,4.53
2023-06-17T09:47:11.522Z,6.32
2023-06-17T09:49:40.615Z,5.10
2023-06-17T09:52:12.852Z,5.63
2023-06-17T09:54:43.342Z,5.90
2023-06-17T09:57:16.064Z,6.00
2023-06-17T09:59:48.089Z,7.07
2023-06-17T10:02:17.028Z,6.90
2023-06-17T10:04:46.425Z,6.70
2023-06-17T10:07:16.732Z,5.90
2023-06-17T10:09:45.766Z,5.95
2023-06-17T10:12:15.248Z,5.63
2023-06-17T10:14:45.228Z,5.15
2023-06-17T10:17:14.673Z,5.57
2023-06-17T10:19:46.106Z,6.75
2023-06-17T10:22:17.936Z,6.05
2023-06-17T10:24:47.318Z,6.32
2023-06-17T10:27:16.148Z,6.32
2023-06-17T10:29:48.101Z,6.57
2023-06-17T10:35:21.932Z,6.05
2023-06-17T10:37:52.303Z,5.80
2023-06-17T10:40:27.045Z,6.35
2023-06-17T10:43:18.987Z,6.88
2023-06-17T10:45:53.618Z,6.30
2023-06-17T10:48:34.571Z,6.82
2023-06-17T10:51:05.683Z,5.63
2023-06-17T10:53:39.561Z,7.47
2023-06-17T10:56:14.023Z,5.45
2023-06-17T10:58:49.174Z,4.45
2023-06-17T11:01:18.984Z,5.85
2023-06-17T11:03:47.840Z,4.25
2023-06-17T11:06:16.830Z,3.55
2023-06-17T11:08:45.562Z,4.43
2023-06-17T11:11:18.856Z,5.97
2023-06-17T11:13:53.902Z,4.97
2023-06-17T11:16:22.871Z,4.90
2023-06-17T11:18:52.158Z,5.80
2023-06-17T11:21:21.164Z,6.10
2023-06-17T11:23:49.923Z,6.65
2023-06-17T11:26:19.838Z,6.28
2023-06-17T11:28:49.456Z,5.40
2023-06-17T11:31:18.376Z,5.32
2023-06-17T11:33:48.060Z,4.97
2023-06-17T11:36:19.462Z,5.22
2023-06-17T11:38:50.928Z,4.80
2023-06-17T11:41:19.868Z,5.03
2023-06-17T11:43:49.806Z,4.93
2023-06-17T11:46:26.661Z,5.82
2023-06-17T11:48:56.635Z,6.13
2023-06-17T11:51:25.822Z,4.10
2023-06-17T11:53:54.649Z,5.38
2023-06-17T11:56:24.383Z,5.07
2023-06-17T11:58:54.947Z,4.82
2023-06-17T12:01:28.170Z,5.70
2023-06-17T12:04:00.464Z,3.97
2023-06-17T12:06:29.966Z,5.40
2023-06-17T12:09:05.991Z,5.78
2023-06-17T12:11:37.903Z,5.50
2023-06-17T12:16:41.648Z,4.70
2023-06-17T12:19:22.889Z,5.72
2023-06-17T12:21:52.700Z,5.57
2023-06-17T12:24:22.227Z,4.90
2023-06-17T12:26:51.486Z,4.60
2023-06-17T12:29:25.875Z,5.63
2023-06-17T12:31:55.743Z,5.78
2023-06-17T12:34:24.537Z,5.78
2023-06-17T12:36:53.464Z,5.80
2023-06-17T12:39:22.652Z,6.13
2023-06-17T12:41:51.776Z,5.40
2023-06-17T12:44:20.421Z,6.70
2023-06-17T12:46:49.854Z,4.53
2023-06-17T12:49:18.608Z,6.38
2023-06-17T12:51:47.938Z,5.43
2023-06-17T12:54:16.802Z,6.32
2023-06-17T12:56:45.976Z,4.78
2023-06-17T12:59:14.713Z,5.45
2023-06-17T13:01:43.942Z,5.20
2023-06-17T13:04:12.717Z,5.10
2023-06-17T13:06:41.848Z,5.72
2023-06-17T13:09:11.986Z,5.97
2023-06-17T13:11:44.359Z,6.60
2023-06-17T13:14:13.751Z,6.87
2023-06-17T13:16:43.087Z,5.50
2023-06-17T13:19:12.982Z,5.80
2023-06-17T13:21:44.080Z,5.78
2023-06-17T13:24:14.135Z,6.82
2023-06-17T13:26:44.237Z,5.57
2023-06-17T13:29:13.718Z,5.45
2023-06-17T13:31:42.472Z,5.47
2023-06-17T13:34:11.332Z,6.57
2023-06-17T13:36:44.058Z,6.57
2023-06-17T13:39:13.291Z,5.97
2023-06-17T13:41:46.723Z,6.05
2023-06-17T13:44:15.823Z,5.80
2023-06-17T13:46:44.783Z,5.88
2023-06-17T13:49:13.792Z,8.15
2023-06-17T13:51:42.645Z,5.93
2023-06-17T13:54:11.542Z,7.32
2023-06-17T13:56:40.192Z,5.68
2023-06-17T13:59:10.227Z,5.85
2023-06-17T14:01:38.865Z,6.78
2023-06-17T14:04:08.109Z,5.93
2023-06-17T14:06:38.173Z,7.05
2023-06-17T14:09:08.085Z,7.00
2023-06-17T14:11:39.862Z,6.05
2023-06-17T14:14:09.410Z,6.35
2023-06-17T14:16:38.047Z,7.28
2023-06-17T14:19:06.955Z,7.53
2023-06-17T14:21:37.471Z,8.43
2023-06-17T14:24:11.785Z,8.80
2023-06-17T14:26:42.648Z,9.43
2023-06-17T14:29:12.726Z,10.40
2023-06-17T14:31:41.690Z,10.70
2023-06-17T14:34:10.394Z,10.75
2023-06-17T14:36:39.416Z,10.52
2023-06-17T14:39:08.103Z,11.23
2023-06-17T14:41:36.978Z,11.73
2023-06-17T14:44:05.981Z,12.55
2023-06-17T14:46:35.045Z,11.23
2023-06-17T14:49:03.765Z,11.07
2023-06-17T14:51:33.436Z,11.23
2023-06-17T14:54:02.002Z,11.13
2023-06-17T14:56:32.586Z,11.75
2023-06-17T14:59:03.775Z,10.50
2023-06-17T15:01:34.371Z,10.82
2023-06-17T15:04:04.810Z,11.10
2023-06-17T15:06:33.858Z,14.73
2023-06-17T15:09:27.607Z,13.98
2023-06-17T15:11:58.383Z,11.95
2023-06-17T15:14:33.010Z,14.80
2023-06-17T15:17:02.301Z,13.98
2023-06-17T15:19:32.624Z,13.32
2023-06-17T15:22:01.676Z,11.98
2023-06-17T15:24:30.395Z,11.48
2023-06-17T15:26:59.434Z,13.63
2023-06-17T15:29:28.748Z,13.00
2023-06-17T15:31:57.592Z,14.02
2023-06-17T15:34:26.368Z,14.40
2023-06-17T15:36:55.327Z,15.55
2023-06-17T15:39:27.166Z,17.85
2023-06-17T15:41:56.649Z,21.52
2023-06-17T15:44:25.387Z,22.85
2023-06-17T15:46:54.566Z,19.40
2023-06-17T15:49:23.217Z,16.33
2023-06-17T15:51:52.188Z,18.15
2023-06-17T15:54:21.112Z,18.63
2023-06-17T15:56:50.039Z,18.55
2023-06-17T15:59:18.754Z,18.10
2023-06-17T16:01:47.749Z,16.90
2023-06-17T16:04:37.715Z,16.67
2023-06-17T16:07:16.381Z,16.75
2023-06-17T16:09:51.829Z,19.02
2023-06-17T16:12:20.923Z,15.30
2023-06-17T16:14:49.561Z,13.55
2023-06-17T16:17:18.750Z,14.13
2023-06-17T16:19:47.409Z,14.20
2023-06-17T16:22:16.305Z,14.25
2023-06-17T16:24:45.470Z,12.63
2023-06-17T16:27:14.543Z,12.35
2023-06-17T16:29:43.847Z,11.88
2023-06-17T16:32:12.941Z,12.95
2023-06-17T16:34:41.764Z,13.63
2023-06-17T16:37:11.049Z,13.68
2023-06-17T16:39:40.777Z,12.40
2023-06-17T16:42:09.825Z,13.00
2023-06-17T16:44:39.555Z,14.73
2023-06-17T16:47:08.851Z,16.13
2023-06-17T16:49:37.613Z,18.95
2023-06-17T16:52:06.781Z,18.35
2023-06-17T16:54:35.529Z,14.55
2023-06-17T16:57:04.703Z,14.10
2023-06-17T16:59:33.359Z,13.70
2023-06-17T17:02:02.433Z,15.07
2023-06-17T17:04:31.224Z,12.27
2023-06-17T17:07:00.704Z,11.88
2023-06-17T17:09:29.440Z,11.65
2023-06-17T17:11:58.722Z,13.38
2023-06-17T17:14:27.569Z,12.27
2023-06-17T17:16:57.502Z,12.35
2023-06-17T17:19:27.053Z,11.23
2023-06-17T17:21:56.095Z,10.45
2023-06-17T17:24:24.830Z,9.98
2023-06-17T17:26:53.856Z,10.55
2023-06-17T17:29:23.480Z,12.48
2023-06-17T17:31:52.385Z,14.05
2023-06-17T17:34:21.049Z,16.77
2023-06-17T17:36:50.002Z,17.63
2023-06-17T17:39:18.845Z,17.75
2023-06-17T17:41:47.682Z,15.35
2023-06-17T17:44:16.494Z,16.02
2023-06-17T17:46:45.542Z,14.43
2023-06-17T17:49:14.255Z,14.40
2023-06-17T17:51:43.135Z,14.80
2023-06-17T17:54:11.916Z,15.35
2023-06-17T17:56:40.817Z,15.50
2023-06-17T17:59:09.542Z,14.15
2023-06-17T18:01:38.585Z,15.82
2023-06-17T18:04:07.608Z,13.13
2023-06-17T18:06:36.584Z,15.32
2023-06-17T18:09:05.578Z,17.15
2023-06-17T18:11:34.493Z,16.15
2023-06-17T18:14:03.478Z,16.25
2023-06-17T18:16:32.438Z,17.92
2023-06-17T18:19:01.181Z,17.02
2023-06-17T18:21:30.702Z,16.58
2023-06-17T18:23:59.471Z,21.95
2023-06-17T18:26:32.293Z,22.15
2023-06-17T18:29:02.209Z,21.42
2023-06-17T18:31:31.221Z,23.63
2023-06-17T18:33:59.970Z,23.10
2023-06-17T18:36:28.928Z,21.70
2023-06-17T18:38:57.648Z,20.10
2023-06-17T18:43:56.332Z,22.95
2023-06-17T18:46:25.334Z,23.58
2023-06-17T18:48:54.204Z,21.35
2023-06-17T18:51:23.131Z,22.25
2023-06-17T18:53:51.722Z,23.38
2023-06-17T18:56:20.628Z,25.63
2023-06-17T18:58:49.497Z,25.13
2023-06-17T19:01:18.878Z,33.95
2023-06-17T19:03:47.981Z,43.50
2023-06-17T19:06:17.005Z,49.22
2023-06-17T19:08:45.851Z,39.38
2023-06-17T19:11:17.308Z,30.30
2023-06-17T19:13:46.492Z,25.42
2023-06-17T19:16:15.520Z,25.45
2023-06-17T19:18:44.725Z,24.60
2023-06-17T19:21:14.050Z,25.08
2023-06-17T19:23:42.930Z,27.92
2023-06-17T19:26:11.686Z,31.88
2023-06-17T19:28:40.515Z,40.00
2023-06-17T19:31:09.274Z,38.38
2023-06-17T19:33:38.223Z,29.90
2023-06-17T19:36:07.715Z,29.90
2023-06-17T19:38:36.923Z,35.08
2023-06-17T19:41:05.714Z,35.10
2023-06-17T19:43:37.580Z,38.88
2023-06-17T19:46:06.621Z,41.92
2023-06-17T19:48:35.363Z,47.70
2023-06-17T19:51:04.226Z,46.55
2023-06-17T19:53:32.987Z,43.47
2023-06-17T19:56:02.006Z,44.08
2023-06-17T19:58:30.678Z,44.30
2023-06-17T20:01:03.892Z,43.30
2023-06-17T20:03:33.302Z,34.50
2023-06-17T20:06:03.026Z,32.40
2023-06-17T20:08:32.993Z,28.75
2023-06-17T20:11:02.280Z,25.05
2023-06-17T20:13:31.531Z,24.13
2023-06-17T20:16:00.916Z,24.38
2023-06-17T20:18:31.378Z,23.70
2023-06-17T20:21:02.038Z,25.08
2023-06-17T20:23:33.063Z,25.38
2023-06-17T20:26:04.417Z,24.05
2023-06-17T20:28:36.011Z,24.25
2023-06-17T20:31:06.288Z,24.15
2023-06-17T20:33:37.086Z,20.98
2023-06-17T20:36:08.259Z,24.15
2023-06-17T20:38:38.490Z,23.48
2023-06-17T20:41:08.886Z,21.40
2023-06-17T20:43:39.124Z,21.92
2023-06-17T20:46:09.488Z,22.35
2023-06-17T20:48:39.667Z,22.52
2023-06-17T20:51:11.343Z,23.95
2023-06-17T20:56:12.343Z,23.02
2023-06-17T20:58:43.253Z,23.00
2023-06-17T21:01:13.570Z,22.52
2023-06-17T21:03:44.011Z,23.55
2023-06-17T21:06:14.850Z,22.55
2023-06-17T21:08:45.547Z,21.45
2023-06-17T21:11:16.286Z,22.10
2023-06-17T21:13:46.521Z,22.10
2023-06-17T21:16:17.295Z,22.08
2023-06-17T21:18:48.074Z,23.25
2023-06-17T21:21:18.866Z,23.15
2023-06-17T21:23:49.264Z,24.30
2023-06-17T21:26:19.494Z,23.60
2023-06-17T21:28:50.051Z,23.00
2023-06-17T21:31:20.865Z,22.60
2023-06-17T21:33:52.878Z,23.92
2023-06-17T21:36:23.620Z,22.27
2023-06-17T21:38:53.911Z,25.88
2023-06-17T21:41:24.685Z,24.42
2023-06-17T21:43:55.782Z,24.27
2023-06-17T21:46:29.122Z,26.10
2023-06-17T21:49:00.021Z,26.05
2023-06-17T21:51:30.333Z,26.42
2023-06-17T21:54:01.012Z,28.52
2023-06-17T21:56:31.737Z,26.88
2023-06-17T21:59:02.091Z,28.83
2023-06-17T22:01:32.831Z,26.73
2023-06-17T22:04:03.567Z,26.92
2023-06-17T22:06:34.256Z,26.95
2023-06-17T22:09:04.484Z,38.42
2023-06-17T22:11:35.298Z,36.63
2023-06-17T22:14:05.455Z,32.97
2023-06-17T22:16:36.882Z,27.80
2023-06-17T22:19:07.280Z,24.80
2023-06-17T22:21:37.663Z,28.25
2023-06-17T22:24:07.928Z,26.90
2023-06-17T22:26:38.336Z,24.60
2023-06-17T22:29:09.404Z,24.40
2023-06-17T22:31:40.166Z,24.30
2023-06-17T22:34:12.918Z,25.27
2023-06-17T22:36:43.525Z,22.48
2023-06-17T22:39:13.832Z,20.83
2023-06-17T22:41:43.815Z,22.10
2023-06-17T22:44:14.157Z,22.90
2023-06-17T22:46:45.392Z,21.63
2023-06-17T22:49:16.176Z,21.88
2023-06-17T22:51:46.834Z,22.60
2023-06-17T22:54:16.805Z,23.77
2023-06-17T22:56:47.467Z,24.35
2023-06-17T22:59:17.845Z,27.67
2023-06-17T23:01:48.627Z,27.45
2023-06-17T23:04:19.199Z,28.30
2023-06-17T23:06:49.235Z,29.23
2023-06-17T23:09:20.271Z,26.58
2023-06-17T23:11:51.572Z,27.40
2023-06-17T23:14:22.243Z,28.52
2023-06-17T23:16:54.194Z,27.95
2023-06-17T23:19:24.824Z,28.45
2023-06-17T23:21:56.345Z,28.92
2023-06-17T23:24:26.630Z,25.95
2023-06-17T23:26:56.896Z,29.77
2023-06-17T23:29:27.687Z,40.92
2023-06-17T23:31:58.058Z,34.95
2023-06-17T23:34:28.347Z,32.65
2023-06-17T23:36:59.350Z,28.92
2023-06-17T23:39:29.140Z,33.53
2023-06-17T23:41:59.877Z,35.88
2023-06-17T23:44:29.880Z,37.35
2023-06-17T23:47:00.556Z,37.47
2023-06-17T23:49:30.939Z,40.83
2023-06-17T23:52:01.963Z,42.95
2023-06-17T23:54:31.605Z,51.17
2023-06-17T23:57:02.158Z,58.53
2023-06-17T23:59:33.502Z,61.63
